sensor_id;sensor_type;location;lat;lon;timestamp;pressure;altitude;pressure_sealevel;temperature;humidity
59831;BME280;45711;50.108;13.712;2023-02-03T00:01:08;98574.53;;;2.21;86.14
59831;BME280;45711;50.108;13.712;2023-02-03T00:03:34;98577.34;;;2.33;86.42
59831;BME280;45711;50.108;13.712;2023-02-03T00:06:00;98564.34;;;2.31;85.11
59831;BME280;45711;50.108;13.712;2023-02-03T00:08:26;98557.25;;;2.32;85.41
59831;BME280;45711;50.108;13.712;2023-02-03T00:10:52;98563.88;;;2.47;86.05
59831;BME280;45711;50.108;13.712;2023-02-03T00:13:18;98569.69;;;2.18;85.64
59831;BME280;45711;50.108;13.712;2023-02-03T00:15:44;98562.00;;;2.10;87.55
59831;BME280;45711;50.108;13.712;2023-02-03T00:18:11;98560.28;;;2.29;86.79
59831;BME280;45711;50.108;13.712;2023-02-03T00:20:37;98555.81;;;2.29;86.37
59831;BME280;45711;50.108;13.712;2023-02-03T00:23:03;98551.19;;;2.18;87.14
59831;BME280;45711;50.108;13.712;2023-02-03T00:25:29;98552.94;;;2.31;87.28
59831;BME280;45711;50.108;13.712;2023-02-03T00:27:55;98552.78;;;2.25;86.97
59831;BME280;45711;50.108;13.712;2023-02-03T00:30:20;98557.91;;;2.07;88.26
59831;BME280;45711;50.108;13.712;2023-02-03T00:32:46;98554.03;;;2.23;87.37
59831;BME280;45711;50.108;13.712;2023-02-03T00:35:12;98554.25;;;2.08;87.92
59831;BME280;45711;50.108;13.712;2023-02-03T00:37:38;98549.59;;;2.10;88.47
59831;BME280;45711;50.108;13.712;2023-02-03T00:40:04;98546.09;;;2.23;87.68
59831;BME280;45711;50.108;13.712;2023-02-03T00:42:30;98538.22;;;2.10;87.99
59831;BME280;45711;50.108;13.712;2023-02-03T00:44:56;98541.81;;;2.29;87.68
59831;BME280;45711;50.108;13.712;2023-02-03T00:47:21;98534.22;;;2.39;87.24
59831;BME280;45711;50.108;13.712;2023-02-03T00:49:47;98536.69;;;2.34;87.09
59831;BME280;45711;50.108;13.712;2023-02-03T00:52:14;98538.41;;;2.08;87.35
59831;BME280;45711;50.108;13.712;2023-02-03T00:54:39;98539.66;;;2.06;88.65
59831;BME280;45711;50.108;13.712;2023-02-03T00:57:05;98533.72;;;2.17;87.99
59831;BME280;45711;50.108;13.712;2023-02-03T00:59:30;98538.38;;;2.21;88.02
59831;BME280;45711;50.108;13.712;2023-02-03T01:01:56;98537.97;;;2.24;87.63
59831;BME280;45711;50.108;13.712;2023-02-03T01:04:21;98541.00;;;2.21;87.25
59831;BME280;45711;50.108;13.712;2023-02-03T01:06:47;98534.72;;;2.22;87.78
59831;BME280;45711;50.108;13.712;2023-02-03T01:09:14;98523.31;;;2.22;87.57
59831;BME280;45711;50.108;13.712;2023-02-03T01:11:39;98515.16;;;2.30;87.36
59831;BME280;45711;50.108;13.712;2023-02-03T01:14:05;98508.94;;;2.18;87.73
59831;BME280;45711;50.108;13.712;2023-02-03T01:16:30;98515.56;;;2.34;87.43
59831;BME280;45711;50.108;13.712;2023-02-03T01:19:00;98514.06;;;2.06;88.12
59831;BME280;45711;50.108;13.712;2023-02-03T01:21:26;98512.50;;;1.92;88.88
59831;BME280;45711;50.108;13.712;2023-02-03T01:23:52;98496.72;;;1.65;89.94
59831;BME280;45711;50.108;13.712;2023-02-03T01:26:20;98495.53;;;1.61;90.46
59831;BME280;45711;50.108;13.712;2023-02-03T01:28:50;98488.19;;;1.57;91.31
59831;BME280;45711;50.108;13.712;2023-02-03T01:31:18;98480.16;;;1.32;92.56
59831;BME280;45711;50.108;13.712;2023-02-03T01:33:44;98482.59;;;1.20;93.64
59831;BME280;45711;50.108;13.712;2023-02-03T01:36:13;98478.34;;;1.06;95.19
59831;BME280;45711;50.108;13.712;2023-02-03T01:38:39;98459.91;;;0.92;95.78
59831;BME280;45711;50.108;13.712;2023-02-03T01:41:08;98459.47;;;0.89;96.37
59831;BME280;45711;50.108;13.712;2023-02-03T01:43:37;98450.56;;;1.10;96.22
59831;BME280;45711;50.108;13.712;2023-02-03T01:46:06;98446.09;;;1.10;95.76
59831;BME280;45711;50.108;13.712;2023-02-03T01:48:36;98433.88;;;1.49;93.74
59831;BME280;45711;50.108;13.712;2023-02-03T01:51:03;98434.00;;;1.61;93.30
59831;BME280;45711;50.108;13.712;2023-02-03T01:53:30;98419.38;;;1.71;92.50
59831;BME280;45711;50.108;13.712;2023-02-03T01:55:57;98414.69;;;1.73;91.78
59831;BME280;45711;50.108;13.712;2023-02-03T01:58:26;98407.91;;;1.97;90.67
59831;BME280;45711;50.108;13.712;2023-02-03T02:00:56;98401.13;;;2.08;90.09
59831;BME280;45711;50.108;13.712;2023-02-03T02:03:24;98386.47;;;2.19;89.11
59831;BME280;45711;50.108;13.712;2023-02-03T02:05:55;98384.84;;;2.18;88.85
59831;BME280;45711;50.108;13.712;2023-02-03T02:08:23;98373.25;;;2.19;89.17
59831;BME280;45711;50.108;13.712;2023-02-03T02:10:49;98374.22;;;1.93;90.14
59831;BME280;45711;50.108;13.712;2023-02-03T02:13:16;98372.97;;;1.95;90.81
59831;BME280;45711;50.108;13.712;2023-02-03T02:15:50;98377.91;;;2.23;89.28
59831;BME280;45711;50.108;13.712;2023-02-03T02:18:33;98377.03;;;2.30;88.73
59831;BME280;45711;50.108;13.712;2023-02-03T02:21:15;98363.75;;;2.11;89.54
59831;BME280;45711;50.108;13.712;2023-02-03T02:23:58;98362.69;;;2.19;89.02
59831;BME280;45711;50.108;13.712;2023-02-03T02:26:55;98361.34;;;2.10;89.65
59831;BME280;45711;50.108;13.712;2023-02-03T02:32:27;98377.47;;;2.26;88.33
59831;BME280;45711;50.108;13.712;2023-02-03T02:35:02;98359.81;;;2.27;88.75
59831;BME280;45711;50.108;13.712;2023-02-03T02:37:37;98360.69;;;2.14;88.83
59831;BME280;45711;50.108;13.712;2023-02-03T02:40:17;98343.56;;;2.23;88.93
59831;BME280;45711;50.108;13.712;2023-02-03T02:42:51;98336.94;;;2.14;89.67
59831;BME280;45711;50.108;13.712;2023-02-03T02:45:21;98339.75;;;2.13;89.38
59831;BME280;45711;50.108;13.712;2023-02-03T02:47:52;98339.25;;;2.29;88.91
59831;BME280;45711;50.108;13.712;2023-02-03T02:50:22;98340.13;;;2.23;88.94
59831;BME280;45711;50.108;13.712;2023-02-03T02:52:49;98346.34;;;2.35;88.43
59831;BME280;45711;50.108;13.712;2023-02-03T02:55:20;98326.63;;;2.06;89.54
59831;BME280;45711;50.108;13.712;2023-02-03T02:57:49;98331.47;;;2.09;89.55
59831;BME280;45711;50.108;13.712;2023-02-03T03:00:16;98333.97;;;2.29;89.02
59831;BME280;45711;50.108;13.712;2023-02-03T03:02:42;98338.69;;;2.20;89.11
59831;BME280;45711;50.108;13.712;2023-02-03T03:05:11;98335.38;;;2.32;88.47
59831;BME280;45711;50.108;13.712;2023-02-03T03:07:40;98346.94;;;2.31;88.66
59831;BME280;45711;50.108;13.712;2023-02-03T03:10:11;98336.06;;;2.20;88.98
59831;BME280;45711;50.108;13.712;2023-02-03T03:12:40;98329.34;;;2.24;89.43
59831;BME280;45711;50.108;13.712;2023-02-03T03:15:11;98332.75;;;2.32;88.63
59831;BME280;45711;50.108;13.712;2023-02-03T03:17:40;98335.53;;;2.37;88.32
59831;BME280;45711;50.108;13.712;2023-02-03T03:20:11;98337.16;;;2.38;88.41
59831;BME280;45711;50.108;13.712;2023-02-03T03:22:44;98332.28;;;2.35;88.07
59831;BME280;45711;50.108;13.712;2023-02-03T03:25:14;98333.94;;;2.36;88.39
59831;BME280;45711;50.108;13.712;2023-02-03T03:27:43;98324.81;;;2.32;88.41
59831;BME280;45711;50.108;13.712;2023-02-03T03:30:15;98324.38;;;2.35;88.27
59831;BME280;45711;50.108;13.712;2023-02-03T03:32:42;98324.56;;;2.40;88.15
59831;BME280;45711;50.108;13.712;2023-02-03T03:35:08;98311.38;;;2.33;88.74
59831;BME280;45711;50.108;13.712;2023-02-03T03:37:37;98312.91;;;2.22;89.50
59831;BME280;45711;50.108;13.712;2023-02-03T03:40:09;98309.81;;;2.25;89.81
59831;BME280;45711;50.108;13.712;2023-02-03T03:42:38;98313.16;;;2.39;88.17
59831;BME280;45711;50.108;13.712;2023-02-03T03:45:10;98316.28;;;2.30;89.40
59831;BME280;45711;50.108;13.712;2023-02-03T03:47:41;98309.56;;;2.34;88.74
59831;BME280;45711;50.108;13.712;2023-02-03T03:50:14;98314.19;;;2.38;88.69
59831;BME280;45711;50.108;13.712;2023-02-03T03:52:42;98310.31;;;2.41;88.63
59831;BME280;45711;50.108;13.712;2023-02-03T03:55:12;98313.34;;;2.44;88.85
59831;BME280;45711;50.108;13.712;2023-02-03T03:57:42;98312.53;;;2.19;90.84
59831;BME280;45711;50.108;13.712;2023-02-03T04:00:13;98319.72;;;2.30;89.84
59831;BME280;45711;50.108;13.712;2023-02-03T04:02:41;98319.56;;;2.25;89.96
59831;BME280;45711;50.108;13.712;2023-02-03T04:05:11;98306.78;;;2.22;90.92
59831;BME280;45711;50.108;13.712;2023-02-03T04:07:38;98301.19;;;2.12;92.04
59831;BME280;45711;50.108;13.712;2023-02-03T04:10:10;98296.09;;;1.85;93.94
59831;BME280;45711;50.108;13.712;2023-02-03T04:12:38;98284.34;;;1.81;94.73
59831;BME280;45711;50.108;13.712;2023-02-03T04:15:04;98289.66;;;2.06;92.42
59831;BME280;45711;50.108;13.712;2023-02-03T04:17:30;98285.13;;;2.13;92.07
59831;BME280;45711;50.108;13.712;2023-02-03T04:19:58;98287.13;;;1.93;94.47
59831;BME280;45711;50.108;13.712;2023-02-03T04:22:23;98283.06;;;1.90;94.39
59831;BME280;45711;50.108;13.712;2023-02-03T04:24:49;98287.41;;;2.10;93.27
59831;BME280;45711;50.108;13.712;2023-02-03T04:27:16;98281.75;;;2.06;93.49
59831;BME280;45711;50.108;13.712;2023-02-03T04:29:43;98281.94;;;2.05;93.18
59831;BME280;45711;50.108;13.712;2023-02-03T04:32:18;98275.28;;;2.27;90.24
59831;BME280;45711;50.108;13.712;2023-02-03T04:34:50;98271.28;;;2.43;89.26
59831;BME280;45711;50.108;13.712;2023-02-03T04:37:16;98259.75;;;2.37;90.47
59831;BME280;45711;50.108;13.712;2023-02-03T04:39:41;98252.25;;;2.34;89.47
59831;BME280;45711;50.108;13.712;2023-02-03T04:42:07;98246.50;;;2.44;90.03
59831;BME280;45711;50.108;13.712;2023-02-03T04:44:34;98241.56;;;2.47;89.08
59831;BME280;45711;50.108;13.712;2023-02-03T04:46:59;98233.44;;;2.49;89.32
59831;BME280;45711;50.108;13.712;2023-02-03T04:49:25;98222.06;;;2.48;88.05
59831;BME280;45711;50.108;13.712;2023-02-03T04:51:50;98208.34;;;2.40;89.21
59831;BME280;45711;50.108;13.712;2023-02-03T04:54:16;98209.56;;;2.37;88.70
59831;BME280;45711;50.108;13.712;2023-02-03T04:56:42;98203.72;;;2.35;89.97
59831;BME280;45711;50.108;13.712;2023-02-03T04:59:08;98196.75;;;2.41;89.30
59831;BME280;45711;50.108;13.712;2023-02-03T05:01:34;98202.22;;;2.39;89.38
59831;BME280;45711;50.108;13.712;2023-02-03T05:04:00;98212.34;;;2.42;88.90
59831;BME280;45711;50.108;13.712;2023-02-03T05:06:27;98197.91;;;2.45;89.30
59831;BME280;45711;50.108;13.712;2023-02-03T05:08:54;98191.84;;;2.44;89.31
59831;BME280;45711;50.108;13.712;2023-02-03T05:11:20;98189.19;;;2.44;89.18
59831;BME280;45711;50.108;13.712;2023-02-03T05:13:46;98178.25;;;2.41;88.92
59831;BME280;45711;50.108;13.712;2023-02-03T05:16:11;98174.94;;;2.45;88.69
59831;BME280;45711;50.108;13.712;2023-02-03T05:18:39;98185.28;;;2.47;88.83
59831;BME280;45711;50.108;13.712;2023-02-03T05:21:04;98187.34;;;2.45;88.93
59831;BME280;45711;50.108;13.712;2023-02-03T05:23:30;98196.66;;;2.47;88.57
59831;BME280;45711;50.108;13.712;2023-02-03T05:25:58;98191.16;;;2.49;88.54
59831;BME280;45711;50.108;13.712;2023-02-03T05:28:24;98199.09;;;2.49;90.03
59831;BME280;45711;50.108;13.712;2023-02-03T05:30:49;98212.88;;;2.51;88.46
59831;BME280;45711;50.108;13.712;2023-02-03T05:33:15;98210.09;;;2.46;89.77
59831;BME280;45711;50.108;13.712;2023-02-03T05:35:42;98215.09;;;2.54;89.26
59831;BME280;45711;50.108;13.712;2023-02-03T05:38:08;98222.13;;;2.60;87.91
59831;BME280;45711;50.108;13.712;2023-02-03T05:40:33;98223.16;;;2.59;88.45
59831;BME280;45711;50.108;13.712;2023-02-03T05:43:18;98213.19;;;2.61;87.68
59831;BME280;45711;50.108;13.712;2023-02-03T05:45:43;98213.53;;;2.65;90.42
59831;BME280;45711;50.108;13.712;2023-02-03T05:48:09;98208.72;;;2.62;88.41
59831;BME280;45711;50.108;13.712;2023-02-03T05:50:35;98203.44;;;2.62;89.71
59831;BME280;45711;50.108;13.712;2023-02-03T05:53:04;98200.56;;;2.63;89.25
59831;BME280;45711;50.108;13.712;2023-02-03T05:55:33;98197.69;;;2.65;91.49
59831;BME280;45711;50.108;13.712;2023-02-03T05:57:59;98208.72;;;2.62;89.40
59831;BME280;45711;50.108;13.712;2023-02-03T06:00:26;98208.50;;;2.63;89.43
59831;BME280;45711;50.108;13.712;2023-02-03T06:02:52;98185.28;;;2.65;87.83
59831;BME280;45711;50.108;13.712;2023-02-03T06:05:18;98181.53;;;2.73;90.14
59831;BME280;45711;50.108;13.712;2023-02-03T06:07:44;98180.31;;;2.75;87.43
59831;BME280;45711;50.108;13.712;2023-02-03T06:10:11;98175.75;;;2.64;88.89
59831;BME280;45711;50.108;13.712;2023-02-03T06:12:37;98169.44;;;2.65;90.02
59831;BME280;45711;50.108;13.712;2023-02-03T06:15:03;98154.41;;;2.66;87.48
59831;BME280;45711;50.108;13.712;2023-02-03T06:17:29;98150.94;;;2.65;88.35
59831;BME280;45711;50.108;13.712;2023-02-03T06:19:54;98160.69;;;2.65;87.90
59831;BME280;45711;50.108;13.712;2023-02-03T06:22:20;98144.97;;;2.70;91.14
59831;BME280;45711;50.108;13.712;2023-02-03T06:24:46;98151.09;;;2.70;89.10
59831;BME280;45711;50.108;13.712;2023-02-03T06:27:14;98155.91;;;2.73;89.89
59831;BME280;45711;50.108;13.712;2023-02-03T06:29:40;98150.19;;;2.76;92.03
59831;BME280;45711;50.108;13.712;2023-02-03T06:32:06;98148.00;;;2.73;89.43
59831;BME280;45711;50.108;13.712;2023-02-03T06:34:32;98146.16;;;2.74;91.60
59831;BME280;45711;50.108;13.712;2023-02-03T06:36:57;98158.44;;;2.68;87.77
59831;BME280;45711;50.108;13.712;2023-02-03T06:39:23;98161.06;;;2.68;88.47
59831;BME280;45711;50.108;13.712;2023-02-03T06:41:49;98166.50;;;2.73;89.36
59831;BME280;45711;50.108;13.712;2023-02-03T06:44:17;98164.88;;;2.72;88.85
59831;BME280;45711;50.108;13.712;2023-02-03T06:46:43;98163.28;;;2.71;89.96
59831;BME280;45711;50.108;13.712;2023-02-03T06:49:09;98157.53;;;2.93;94.83
59831;BME280;45711;50.108;13.712;2023-02-03T06:51:34;98141.53;;;2.88;93.19
59831;BME280;45711;50.108;13.712;2023-02-03T06:54:03;98133.50;;;2.94;93.64
59831;BME280;45711;50.108;13.712;2023-02-03T06:56:29;98144.31;;;2.93;93.85
59831;BME280;45711;50.108;13.712;2023-02-03T06:58:55;98134.78;;;2.92;94.10
59831;BME280;45711;50.108;13.712;2023-02-03T07:01:23;98127.66;;;2.74;91.73
59831;BME280;45711;50.108;13.712;2023-02-03T07:03:50;98122.00;;;2.89;93.41
59831;BME280;45711;50.108;13.712;2023-02-03T07:06:16;98133.38;;;2.89;93.22
59831;BME280;45711;50.108;13.712;2023-02-03T07:08:41;98131.03;;;2.81;89.31
59831;BME280;45711;50.108;13.712;2023-02-03T07:11:07;98134.41;;;2.88;92.58
59831;BME280;45711;50.108;13.712;2023-02-03T07:13:33;98125.31;;;2.84;91.89
59831;BME280;45711;50.108;13.712;2023-02-03T07:15:58;98130.09;;;2.75;88.82
59831;BME280;45711;50.108;13.712;2023-02-03T07:18:25;98118.03;;;2.80;89.78
59831;BME280;45711;50.108;13.712;2023-02-03T07:20:51;98112.97;;;2.78;89.56
59831;BME280;45711;50.108;13.712;2023-02-03T07:23:17;98121.56;;;2.73;89.46
59831;BME280;45711;50.108;13.712;2023-02-03T07:25:43;98123.69;;;2.83;89.92
59831;BME280;45711;50.108;13.712;2023-02-03T07:28:08;98119.66;;;2.81;89.50
59831;BME280;45711;50.108;13.712;2023-02-03T07:30:34;98129.63;;;2.78;90.02
59831;BME280;45711;50.108;13.712;2023-02-03T07:33:00;98118.50;;;2.76;88.77
59831;BME280;45711;50.108;13.712;2023-02-03T07:35:27;98123.84;;;2.88;90.83
59831;BME280;45711;50.108;13.712;2023-02-03T07:37:52;98113.25;;;2.88;90.65
59831;BME280;45711;50.108;13.712;2023-02-03T07:40:18;98104.16;;;2.84;89.19
59831;BME280;45711;50.108;13.712;2023-02-03T07:42:46;98113.94;;;2.84;88.99
59831;BME280;45711;50.108;13.712;2023-02-03T07:45:13;98120.38;;;2.88;88.69
59831;BME280;45711;50.108;13.712;2023-02-03T07:47:39;98109.81;;;2.88;90.77
59831;BME280;45711;50.108;13.712;2023-02-03T07:50:05;98120.72;;;2.91;90.78
59831;BME280;45711;50.108;13.712;2023-02-03T07:52:33;98110.88;;;2.98;91.78
59831;BME280;45711;50.108;13.712;2023-02-03T07:54:58;98114.91;;;3.01;91.10
59831;BME280;45711;50.108;13.712;2023-02-03T07:57:24;98107.88;;;2.95;89.88
59831;BME280;45711;50.108;13.712;2023-02-03T07:59:49;98105.22;;;2.95;90.01
59831;BME280;45711;50.108;13.712;2023-02-03T08:02:15;98101.41;;;2.91;89.12
59831;BME280;45711;50.108;13.712;2023-02-03T08:04:40;98098.91;;;2.96;90.24
59831;BME280;45711;50.108;13.712;2023-02-03T08:07:06;98081.25;;;3.08;91.34
59831;BME280;45711;50.108;13.712;2023-02-03T08:09:33;98077.97;;;2.94;88.54
59831;BME280;45711;50.108;13.712;2023-02-03T08:11:58;98067.22;;;3.08;90.89
59831;BME280;45711;50.108;13.712;2023-02-03T08:14:24;98064.63;;;2.89;89.10
59831;BME280;45711;50.108;13.712;2023-02-03T08:16:49;98050.44;;;3.02;90.68
59831;BME280;45711;50.108;13.712;2023-02-03T08:19:15;98044.22;;;2.96;89.23
59831;BME280;45711;50.108;13.712;2023-02-03T08:21:40;98044.53;;;2.88;89.48
59831;BME280;45711;50.108;13.712;2023-02-03T08:24:06;98026.03;;;2.88;89.79
59831;BME280;45711;50.108;13.712;2023-02-03T08:26:34;98024.91;;;3.08;91.28
59831;BME280;45711;50.108;13.712;2023-02-03T08:28:59;98034.44;;;2.97;89.96
59831;BME280;45711;50.108;13.712;2023-02-03T08:31:25;98031.91;;;3.02;89.77
59831;BME280;45711;50.108;13.712;2023-02-03T08:33:50;98037.81;;;3.16;90.35
59831;BME280;45711;50.108;13.712;2023-02-03T08:36:16;98030.13;;;3.14;90.99
59831;BME280;45711;50.108;13.712;2023-02-03T08:38:41;98019.47;;;2.91;89.91
59831;BME280;45711;50.108;13.712;2023-02-03T08:41:08;98014.66;;;2.99;90.61
59831;BME280;45711;50.108;13.712;2023-02-03T08:43:35;98027.53;;;2.96;90.32
59831;BME280;45711;50.108;13.712;2023-02-03T08:46:02;98019.50;;;3.02;90.71
59831;BME280;45711;50.108;13.712;2023-02-03T08:48:27;98016.22;;;3.19;91.11
59831;BME280;45711;50.108;13.712;2023-02-03T08:50:53;98022.50;;;3.06;90.74
59831;BME280;45711;50.108;13.712;2023-02-03T08:53:18;98022.16;;;3.02;90.46
59831;BME280;45711;50.108;13.712;2023-02-03T08:55:44;98011.13;;;3.06;91.61
59831;BME280;45711;50.108;13.712;2023-02-03T08:58:09;98016.19;;;3.07;90.66
59831;BME280;45711;50.108;13.712;2023-02-03T09:00:37;98018.03;;;3.07;91.10
59831;BME280;45711;50.108;13.712;2023-02-03T09:03:02;98017.22;;;3.06;91.20
59831;BME280;45711;50.108;13.712;2023-02-03T09:05:29;98013.06;;;2.98;90.27
59831;BME280;45711;50.108;13.712;2023-02-03T09:07:54;98015.38;;;3.07;90.95
59831;BME280;45711;50.108;13.712;2023-02-03T09:10:20;98004.94;;;3.23;91.59
59831;BME280;45711;50.108;13.712;2023-02-03T09:12:45;98000.34;;;3.19;91.07
59831;BME280;45711;50.108;13.712;2023-02-03T09:15:11;98008.97;;;3.14;91.11
59831;BME280;45711;50.108;13.712;2023-02-03T09:17:38;97989.84;;;3.12;90.51
59831;BME280;45711;50.108;13.712;2023-02-03T09:20:04;97995.13;;;3.12;91.47
59831;BME280;45711;50.108;13.712;2023-02-03T09:22:30;97991.47;;;3.01;91.44
59831;BME280;45711;50.108;13.712;2023-02-03T09:24:55;97984.69;;;3.17;92.07
59831;BME280;45711;50.108;13.712;2023-02-03T09:27:21;97978.94;;;3.20;90.77
59831;BME280;45711;50.108;13.712;2023-02-03T09:29:46;97975.38;;;3.15;90.53
59831;BME280;45711;50.108;13.712;2023-02-03T09:32:12;97974.81;;;3.24;91.82
59831;BME280;45711;50.108;13.712;2023-02-03T09:34:39;97978.94;;;3.20;90.77
59831;BME280;45711;50.108;13.712;2023-02-03T09:37:05;97971.25;;;3.19;91.21
59831;BME280;45711;50.108;13.712;2023-02-03T09:39:31;97969.19;;;3.09;91.70
59831;BME280;45711;50.108;13.712;2023-02-03T09:44:49;97957.09;;;3.25;91.27
59831;BME280;45711;50.108;13.712;2023-02-03T09:47:21;97947.31;;;3.25;91.57
59831;BME280;45711;50.108;13.712;2023-02-03T09:49:51;97930.53;;;3.32;92.18
59831;BME280;45711;50.108;13.712;2023-02-03T09:52:20;97919.25;;;3.24;90.80
59831;BME280;45711;50.108;13.712;2023-02-03T09:54:52;97900.25;;;3.39;90.32
59831;BME280;45711;50.108;13.712;2023-02-03T09:57:21;97896.25;;;3.37;91.88
59831;BME280;45711;50.108;13.712;2023-02-03T09:59:47;97890.75;;;3.26;90.29
59831;BME280;45711;50.108;13.712;2023-02-03T10:02:24;97900.16;;;3.34;91.73
59831;BME280;45711;50.108;13.712;2023-02-03T10:04:58;97899.25;;;3.28;91.02
59831;BME280;45711;50.108;13.712;2023-02-03T10:07:32;97894.88;;;3.46;92.04
59831;BME280;45711;50.108;13.712;2023-02-03T10:10:10;97903.59;;;3.35;90.39
59831;BME280;45711;50.108;13.712;2023-02-03T10:12:50;97917.72;;;3.52;91.43
59831;BME280;45711;50.108;13.712;2023-02-03T10:15:37;97895.13;;;3.33;91.50
59831;BME280;45711;50.108;13.712;2023-02-03T10:18:07;97889.66;;;3.51;90.26
59831;BME280;45711;50.108;13.712;2023-02-03T10:20:41;97900.97;;;3.35;91.43
59831;BME280;45711;50.108;13.712;2023-02-03T10:23:11;97887.53;;;3.36;91.49
59831;BME280;45711;50.108;13.712;2023-02-03T10:25:40;97882.16;;;3.71;89.71
59831;BME280;45711;50.108;13.712;2023-02-03T10:28:13;97875.28;;;3.59;90.56
59831;BME280;45711;50.108;13.712;2023-02-03T10:30:44;97859.06;;;3.55;91.29
59831;BME280;45711;50.108;13.712;2023-02-03T10:33:12;97862.53;;;3.44;90.75
59831;BME280;45711;50.108;13.712;2023-02-03T10:35:44;97871.84;;;3.58;90.82
59831;BME280;45711;50.108;13.712;2023-02-03T10:38:15;97870.44;;;3.56;90.54
59831;BME280;45711;50.108;13.712;2023-02-03T10:40:43;97864.56;;;3.65;90.48
59831;BME280;45711;50.108;13.712;2023-02-03T10:43:09;97858.47;;;3.65;91.20
59831;BME280;45711;50.108;13.712;2023-02-03T10:45:54;97856.50;;;3.60;90.41
59831;BME280;45711;50.108;13.712;2023-02-03T10:48:19;97853.25;;;3.70;90.30
59831;BME280;45711;50.108;13.712;2023-02-03T10:50:49;97846.34;;;3.81;90.53
59831;BME280;45711;50.108;13.712;2023-02-03T10:53:23;97840.59;;;3.72;91.01
59831;BME280;45711;50.108;13.712;2023-02-03T10:55:50;97837.44;;;3.58;90.92
59831;BME280;45711;50.108;13.712;2023-02-03T10:58:24;97827.91;;;3.57;90.68
59831;BME280;45711;50.108;13.712;2023-02-03T11:00:54;97829.16;;;3.55;91.97
59831;BME280;45711;50.108;13.712;2023-02-03T11:03:23;97816.19;;;3.53;91.82
59831;BME280;45711;50.108;13.712;2023-02-03T11:06:05;97805.97;;;3.73;92.29
59831;BME280;45711;50.108;13.712;2023-02-03T11:08:32;97802.00;;;3.59;92.45
59831;BME280;45711;50.108;13.712;2023-02-03T11:11:01;97797.13;;;3.68;91.22
59831;BME280;45711;50.108;13.712;2023-02-03T11:13:28;97788.50;;;3.89;92.41
59831;BME280;45711;50.108;13.712;2023-02-03T11:15:56;97786.97;;;3.76;90.60
59831;BME280;45711;50.108;13.712;2023-02-03T11:18:50;97784.13;;;3.66;90.33
59831;BME280;45711;50.108;13.712;2023-02-03T11:21:19;97794.31;;;3.58;91.32
59831;BME280;45711;50.108;13.712;2023-02-03T11:23:48;97796.53;;;3.49;91.82
59831;BME280;45711;50.108;13.712;2023-02-03T11:26:19;97804.63;;;3.59;91.49
59831;BME280;45711;50.108;13.712;2023-02-03T11:28:52;97794.38;;;3.63;91.41
59831;BME280;45711;50.108;13.712;2023-02-03T11:31:23;97801.00;;;3.77;92.10
59831;BME280;45711;50.108;13.712;2023-02-03T11:33:53;97796.44;;;3.61;91.03
59831;BME280;45711;50.108;13.712;2023-02-03T11:36:25;97795.81;;;3.53;91.27
59831;BME280;45711;50.108;13.712;2023-02-03T11:38:51;97785.44;;;3.52;91.22
59831;BME280;45711;50.108;13.712;2023-02-03T11:41:18;97778.28;;;3.64;91.25
59831;BME280;45711;50.108;13.712;2023-02-03T11:43:44;97774.91;;;3.69;91.10
59831;BME280;45711;50.108;13.712;2023-02-03T11:46:10;97768.84;;;3.57;91.42
59831;BME280;45711;50.108;13.712;2023-02-03T11:48:38;97778.06;;;3.66;92.35
59831;BME280;45711;50.108;13.712;2023-02-03T11:51:16;97756.91;;;3.54;90.85
59831;BME280;45711;50.108;13.712;2023-02-03T11:53:56;97750.97;;;3.47;91.47
59831;BME280;45711;50.108;13.712;2023-02-03T11:56:30;97741.03;;;3.54;91.83
59831;BME280;45711;50.108;13.712;2023-02-03T11:59:10;97732.09;;;3.72;91.65
59831;BME280;45711;50.108;13.712;2023-02-03T12:02:01;97710.13;;;3.71;90.86
59831;BME280;45711;50.108;13.712;2023-02-03T12:04:45;97716.28;;;3.60;90.87
59831;BME280;45711;50.108;13.712;2023-02-03T12:07:27;97705.69;;;3.60;91.22
59831;BME280;45711;50.108;13.712;2023-02-03T12:10:03;97695.09;;;3.60;92.26
59831;BME280;45711;50.108;13.712;2023-02-03T12:12:45;97691.81;;;3.53;91.88
59831;BME280;45711;50.108;13.712;2023-02-03T12:15:23;97692.41;;;3.72;90.72
59831;BME280;45711;50.108;13.712;2023-02-03T12:18:02;97685.22;;;3.56;91.61
59831;BME280;45711;50.108;13.712;2023-02-03T12:20:40;97696.94;;;3.60;91.62
59831;BME280;45711;50.108;13.712;2023-02-03T12:23:19;97694.59;;;3.46;92.38
59831;BME280;45711;50.108;13.712;2023-02-03T12:25:59;97689.00;;;3.60;91.46
59831;BME280;45711;50.108;13.712;2023-02-03T12:28:44;97692.25;;;3.62;92.01
59831;BME280;45711;50.108;13.712;2023-02-03T12:31:15;97686.47;;;3.82;91.25
59831;BME280;45711;50.108;13.712;2023-02-03T12:33:46;97686.78;;;3.68;91.31
59831;BME280;45711;50.108;13.712;2023-02-03T12:36:19;97677.72;;;3.64;92.13
59831;BME280;45711;50.108;13.712;2023-02-03T12:38:49;97690.88;;;3.76;91.88
59831;BME280;45711;50.108;13.712;2023-02-03T12:41:23;97692.16;;;3.73;91.03
59831;BME280;45711;50.108;13.712;2023-02-03T12:43:52;97689.09;;;3.82;91.63
59831;BME280;45711;50.108;13.712;2023-02-03T12:46:21;97675.88;;;3.82;91.87
59831;BME280;45711;50.108;13.712;2023-02-03T12:48:51;97677.66;;;3.93;92.54
59831;BME280;45711;50.108;13.712;2023-02-03T12:51:27;97688.56;;;3.80;92.66
59831;BME280;45711;50.108;13.712;2023-02-03T12:54:00;97682.59;;;3.72;91.66
59831;BME280;45711;50.108;13.712;2023-02-03T12:56:34;97674.13;;;3.70;92.07
59831;BME280;45711;50.108;13.712;2023-02-03T12:59:07;97671.91;;;4.35;91.90
59831;BME280;45711;50.108;13.712;2023-02-03T13:01:36;97661.66;;;4.04;90.30
59831;BME280;45711;50.108;13.712;2023-02-03T13:04:07;97661.84;;;3.98;91.65
59831;BME280;45711;50.108;13.712;2023-02-03T13:06:40;97669.19;;;3.96;90.77
59831;BME280;45711;50.108;13.712;2023-02-03T13:09:19;97662.00;;;3.74;92.37
59831;BME280;45711;50.108;13.712;2023-02-03T13:11:52;97644.28;;;3.92;91.28
59831;BME280;45711;50.108;13.712;2023-02-03T13:14:23;97642.25;;;3.82;90.96